createdAt,value
2022-09-16T00:01:01.378Z,75.40
2022-09-16T00:03:29.264Z,75.40
2022-09-16T00:05:57.164Z,75.40
2022-09-16T00:08:25.293Z,75.50
2022-09-16T00:10:53.250Z,75.40
2022-09-16T00:13:22.476Z,75.40
2022-09-16T00:15:51.918Z,75.40
2022-09-16T00:18:21.382Z,75.40
2022-09-16T00:20:51.296Z,75.40
2022-09-16T00:23:20.388Z,75.40
2022-09-16T00:25:52.433Z,75.40
2022-09-16T00:28:22.609Z,75.50
2022-09-16T00:30:50.788Z,75.50
2022-09-16T00:33:19.893Z,75.50
2022-09-16T00:35:48.368Z,75.50
2022-09-16T00:38:16.768Z,75.60
2022-09-16T00:40:46.360Z,75.60
2022-09-16T00:43:15.018Z,75.60
2022-09-16T00:45:47.737Z,75.60
2022-09-16T00:48:21.389Z,75.60
2022-09-16T00:50:52.237Z,75.50
2022-09-16T00:53:24.697Z,75.50
2022-09-16T00:55:55.519Z,75.50
2022-09-16T00:58:29.049Z,75.40
2022-09-16T01:00:58.381Z,75.30
2022-09-16T01:03:27.174Z,75.20
2022-09-16T01:05:55.170Z,75.30
2022-09-16T01:08:23.034Z,75.30
2022-09-16T01:10:51.018Z,75.30
2022-09-16T01:13:19.071Z,75.20
2022-09-16T01:15:56.516Z,75.10
2022-09-16T01:18:32.239Z,75.10
2022-09-16T01:21:10.398Z,75.00
2022-09-16T01:24:11.860Z,75.00
2022-09-16T01:27:09.569Z,75.10
2022-09-16T01:30:04.115Z,75.10
2022-09-16T01:32:40.672Z,75.20
2022-09-16T01:35:16.560Z,75.20
2022-09-16T01:37:54.207Z,75.20
2022-09-16T01:40:29.545Z,75.10
2022-09-16T01:43:04.749Z,75.00
2022-09-16T01:45:39.639Z,75.00
2022-09-16T01:48:14.500Z,75.00
2022-09-16T01:50:47.160Z,74.90
2022-09-16T01:53:18.997Z,74.90
2022-09-16T01:55:52.195Z,74.90
2022-09-16T01:58:27.092Z,74.80
2022-09-16T02:01:00.369Z,74.80
2022-09-16T02:03:33.570Z,74.80
2022-09-16T02:06:04.918Z,74.80
2022-09-16T02:08:39.577Z,74.70
2022-09-16T02:11:11.163Z,74.70
2022-09-16T02:13:42.353Z,74.70
2022-09-16T02:16:13.336Z,74.70
2022-09-16T02:18:44.701Z,74.60
2022-09-16T02:21:16.397Z,74.50
2022-09-16T02:23:51.187Z,74.50
2022-09-16T02:26:22.656Z,74.40
2022-09-16T02:28:53.510Z,74.40
2022-09-16T02:31:26.549Z,74.40
2022-09-16T02:34:01.261Z,74.40
2022-09-16T02:36:30.691Z,74.40
2022-09-16T02:39:03.933Z,74.40
2022-09-16T02:41:32.139Z,74.40
2022-09-16T02:44:00.076Z,74.50
2022-09-16T02:46:34.995Z,74.50
2022-09-16T02:49:13.984Z,74.60
2022-09-16T02:51:49.791Z,74.60
2022-09-16T02:54:25.442Z,74.50
2022-09-16T02:56:56.502Z,74.60
2022-09-16T02:59:25.318Z,74.60
2022-09-16T03:01:53.313Z,74.50
2022-09-16T03:04:22.712Z,74.50
2022-09-16T03:06:50.617Z,74.40
2022-09-16T03:09:23.770Z,74.40
2022-09-16T03:12:11.881Z,74.50
2022-09-16T03:15:03.510Z,74.40
2022-09-16T03:17:48.116Z,74.40
2022-09-16T03:20:23.454Z,74.30
2022-09-16T03:23:05.661Z,74.30
2022-09-16T03:25:44.062Z,74.30
2022-09-16T03:28:17.622Z,74.40
2022-09-16T03:30:53.688Z,74.30
2022-09-16T03:33:29.308Z,74.30
2022-09-16T03:36:01.754Z,74.30
2022-09-16T03:38:29.941Z,74.20
2022-09-16T03:40:58.257Z,74.20
2022-09-16T03:43:26.107Z,74.10
2022-09-16T03:45:54.089Z,74.20
2022-09-16T03:48:22.002Z,74.20
2022-09-16T03:50:49.908Z,74.30
2022-09-16T03:53:19.324Z,74.40
2022-09-16T03:55:50.136Z,74.40
2022-09-16T03:58:18.051Z,74.50
2022-09-16T04:00:51.779Z,74.40
2022-09-16T04:03:19.765Z,74.40
2022-09-16T04:05:47.664Z,74.40
2022-09-16T04:08:15.493Z,74.40
2022-09-16T04:10:53.973Z,74.40
2022-09-16T04:13:21.874Z,74.30
2022-09-16T04:15:51.096Z,74.30
2022-09-16T04:18:19.685Z,74.30
2022-09-16T04:20:47.639Z,74.20
2022-09-16T04:23:15.506Z,74.20
2022-09-16T04:25:44.704Z,74.10
2022-09-16T04:28:12.564Z,74.10
2022-09-16T04:30:40.444Z,74.10
2022-09-16T04:33:08.291Z,74.10
2022-09-16T04:35:36.135Z,74.10
2022-09-16T04:38:03.983Z,74.00
2022-09-16T04:40:31.951Z,74.10
2022-09-16T04:43:01.189Z,74.00
2022-09-16T04:45:29.130Z,74.00
2022-09-16T04:47:57.553Z,73.90
2022-09-16T04:50:25.534Z,73.90
2022-09-16T04:52:54.332Z,73.80
2022-09-16T04:55:23.120Z,73.90
2022-09-16T04:57:51.229Z,73.90
2022-09-16T05:00:20.467Z,73.90
2022-09-16T05:02:49.537Z,73.90
2022-09-16T05:05:18.196Z,73.90
2022-09-16T05:07:46.022Z,73.90
2022-09-16T05:10:14.062Z,73.90
2022-09-16T05:12:43.246Z,73.90
2022-09-16T05:15:12.563Z,73.90
2022-09-16T05:17:51.017Z,73.90
2022-09-16T05:20:19.346Z,73.90
2022-09-16T05:22:50.154Z,73.90
2022-09-16T05:25:18.396Z,73.90
2022-09-16T05:27:46.218Z,73.90
2022-09-16T05:30:15.021Z,73.90
2022-09-16T05:32:44.323Z,73.90
2022-09-16T05:35:12.374Z,73.90
2022-09-16T05:37:40.325Z,73.90
2022-09-16T05:40:09.635Z,73.90
2022-09-16T05:42:37.562Z,73.90
2022-09-16T05:45:06.324Z,73.90
2022-09-16T05:47:34.276Z,73.90
2022-09-16T05:50:03.443Z,74.00
2022-09-16T05:52:31.321Z,74.00
2022-09-16T05:54:59.159Z,74.00
2022-09-16T05:57:27.003Z,74.00
2022-09-16T05:59:54.840Z,74.00
2022-09-16T06:02:22.767Z,74.00
2022-09-16T06:04:50.825Z,74.00
2022-09-16T06:07:20.059Z,74.00
2022-09-16T06:09:47.919Z,74.00
2022-09-16T06:12:15.967Z,74.00
2022-09-16T06:14:43.834Z,73.80
2022-09-16T06:17:11.689Z,73.80
2022-09-16T06:19:39.593Z,73.80
2022-09-16T06:22:07.471Z,73.70
2022-09-16T06:24:36.684Z,73.70
2022-09-16T06:27:04.697Z,73.70
2022-09-16T06:29:32.593Z,73.70
2022-09-16T06:32:00.453Z,73.70
2022-09-16T06:34:28.754Z,73.70
2022-09-16T06:36:56.694Z,73.70
2022-09-16T06:39:24.511Z,73.70
2022-09-16T06:41:53.829Z,73.70
2022-09-16T06:44:31.360Z,73.70
2022-09-16T06:46:59.214Z,73.60
2022-09-16T06:49:27.188Z,73.60
2022-09-16T06:51:55.067Z,73.50
2022-09-16T06:54:23.100Z,73.50
2022-09-16T06:56:51.071Z,73.40
2022-09-16T06:59:20.312Z,73.30
2022-09-16T07:01:48.186Z,73.20
2022-09-16T07:04:16.043Z,73.10
2022-09-16T07:07:08.024Z,73.10
2022-09-16T07:09:34.023Z,73.10
2022-09-16T07:12:02.587Z,73.10
2022-09-16T07:14:32.582Z,73.10
2022-09-16T07:17:01.071Z,73.10
2022-09-16T07:19:29.384Z,73.10
2022-09-16T07:21:57.194Z,73.00
2022-09-16T07:24:25.113Z,72.90
2022-09-16T07:26:53.034Z,72.90
2022-09-16T07:29:21.987Z,72.90
2022-09-16T07:31:51.171Z,72.80
2022-09-16T07:34:20.066Z,72.80
2022-09-16T07:36:49.882Z,72.80
2022-09-16T07:39:19.783Z,72.70
2022-09-16T07:41:48.969Z,72.70
2022-09-16T07:44:19.805Z,72.40
2022-09-16T07:46:48.105Z,72.00
2022-09-16T07:49:17.680Z,71.90
2022-09-16T07:51:45.885Z,72.00
2022-09-16T07:54:15.768Z,72.00
2022-09-16T07:56:45.129Z,72.00
2022-09-16T07:59:18.507Z,72.00
2022-09-16T08:01:47.372Z,71.90
2022-09-16T08:04:16.899Z,71.70
2022-09-16T08:06:44.777Z,71.70
2022-09-16T08:09:37.358Z,71.60
2022-09-16T08:12:02.584Z,71.60
2022-09-16T08:14:30.520Z,71.50
2022-09-16T08:16:59.019Z,71.50
2022-09-16T08:19:28.253Z,71.50
2022-09-16T08:21:56.181Z,71.50
2022-09-16T08:24:24.027Z,71.40
2022-09-16T08:26:52.109Z,71.30
2022-09-16T08:29:22.384Z,71.20
2022-09-16T08:31:50.416Z,71.20
2022-09-16T08:34:18.392Z,71.00
2022-09-16T08:36:47.679Z,70.90
2022-09-16T08:39:15.984Z,70.80
2022-09-16T08:42:04.334Z,70.80
2022-09-16T08:44:41.270Z,70.80
2022-09-16T08:47:22.489Z,70.50
2022-09-16T08:49:53.106Z,70.40
2022-09-16T08:52:29.673Z,70.40
2022-09-16T08:55:00.840Z,70.30
2022-09-16T08:57:31.442Z,70.40
2022-09-16T09:00:02.669Z,70.30
2022-09-16T09:05:17.614Z,70.30
2022-09-16T09:07:58.723Z,70.30
2022-09-16T09:10:32.065Z,70.30
2022-09-16T09:13:06.253Z,70.20
2022-09-16T09:15:42.533Z,70.00
2022-09-16T09:18:25.792Z,70.00
2022-09-16T09:21:05.242Z,69.90
2022-09-16T09:23:50.497Z,69.80
2022-09-16T09:26:23.068Z,69.70
2022-09-16T09:29:08.271Z,69.70
2022-09-16T09:31:49.054Z,69.80
2022-09-16T09:34:34.911Z,69.80
2022-09-16T09:37:20.149Z,69.90
2022-09-16T09:40:01.138Z,69.60
2022-09-16T09:42:32.966Z,69.30
2022-09-16T09:45:04.677Z,69.30
2022-09-16T09:47:37.910Z,69.20
2022-09-16T09:50:16.553Z,69.00
2022-09-16T09:52:51.239Z,68.90
2022-09-16T09:55:24.314Z,68.80
2022-09-16T09:58:03.875Z,68.80
2022-09-16T10:00:31.724Z,68.80
2022-09-16T10:03:07.144Z,68.70
2022-09-16T10:05:35.397Z,68.40
2022-09-16T10:08:10.818Z,68.40
2022-09-16T10:10:51.399Z,68.40
2022-09-16T10:13:20.393Z,68.40
2022-09-16T10:15:53.285Z,68.50
2022-09-16T10:18:27.364Z,68.50
2022-09-16T10:21:04.249Z,68.10
2022-09-16T10:23:32.749Z,68.40
2022-09-16T10:26:22.368Z,68.30
2022-09-16T10:28:59.146Z,68.20
2022-09-16T10:31:33.595Z,67.90
2022-09-16T10:34:03.956Z,67.80
2022-09-16T10:36:35.673Z,67.70
2022-09-16T10:39:05.561Z,67.60
2022-09-16T10:41:42.426Z,67.40
2022-09-16T10:44:18.247Z,67.20
2022-09-16T10:46:55.233Z,67.30
2022-09-16T10:49:27.121Z,67.10
2022-09-16T10:51:55.024Z,66.80
2022-09-16T10:54:28.270Z,66.80
2022-09-16T10:56:57.436Z,66.70
2022-09-16T10:59:25.388Z,66.40
2022-09-16T11:02:06.208Z,66.50
2022-09-16T11:05:00.040Z,66.50
2022-09-16T11:07:37.603Z,66.50
2022-09-16T11:10:15.926Z,66.20
2022-09-16T11:13:09.511Z,65.90
2022-09-16T11:15:51.889Z,65.70
2022-09-16T11:18:31.113Z,65.80
2022-09-16T11:21:39.444Z,65.70
2022-09-16T11:24:21.146Z,65.20
2022-09-16T11:26:57.554Z,64.90
2022-09-16T11:29:51.893Z,65.00
2022-09-16T11:32:29.504Z,64.10
2022-09-16T11:35:20.528Z,64.80
2022-09-16T11:37:55.511Z,64.60
2022-09-16T11:40:31.649Z,64.10
2022-09-16T11:43:21.305Z,64.40
2022-09-16T11:45:58.242Z,64.10
2022-09-16T11:48:39.812Z,63.90
2022-09-16T11:51:20.057Z,63.80
2022-09-16T11:54:02.060Z,63.90
2022-09-16T11:56:38.738Z,63.90
2022-09-16T11:59:14.103Z,64.10
2022-09-16T12:01:46.955Z,64.30
2022-09-16T12:04:22.977Z,63.80
2022-09-16T12:07:01.053Z,63.90
2022-09-16T12:09:40.475Z,64.00
2022-09-16T12:12:14.489Z,64.00
2022-09-16T12:14:44.802Z,64.00
2022-09-16T12:17:18.684Z,64.00
2022-09-16T12:19:52.613Z,64.20
2022-09-16T12:22:23.681Z,64.20
2022-09-16T12:24:59.933Z,64.20
2022-09-16T12:27:38.562Z,64.10
2022-09-16T12:30:15.299Z,63.70
2022-09-16T12:32:51.661Z,63.80
2022-09-16T12:35:25.149Z,63.50
2022-09-16T12:37:55.178Z,63.30
2022-09-16T12:40:26.011Z,63.40
2022-09-16T12:43:22.472Z,63.40
2022-09-16T12:46:13.147Z,63.20
2022-09-16T12:49:10.859Z,63.30
2022-09-16T12:52:17.386Z,63.50
2022-09-16T12:55:08.655Z,63.50
2022-09-16T12:57:49.763Z,63.40
2022-09-16T13:00:21.995Z,62.90
2022-09-16T13:02:53.698Z,63.10
2022-09-16T13:05:30.863Z,63.00
2022-09-16T13:08:05.148Z,63.20
2022-09-16T13:10:54.695Z,63.30
2022-09-16T13:13:33.479Z,63.20
2022-09-16T13:16:04.405Z,63.10
2022-09-16T13:18:46.191Z,62.80
2022-09-16T13:21:23.776Z,62.50
2022-09-16T13:23:59.988Z,62.60
2022-09-16T13:26:40.318Z,62.60
2022-09-16T13:29:28.260Z,62.50
2022-09-16T13:34:30.159Z,62.60
2022-09-16T13:36:59.513Z,62.40
2022-09-16T13:39:32.993Z,62.30
2022-09-16T13:42:12.444Z,62.20
2022-09-16T13:44:43.752Z,62.00
2022-09-16T13:47:29.548Z,62.20
2022-09-16T13:50:04.213Z,61.90
2022-09-16T13:52:35.659Z,61.90
2022-09-16T13:55:11.069Z,61.80
2022-09-16T13:57:52.901Z,61.70
2022-09-16T14:00:22.755Z,61.40
2022-09-16T14:03:25.512Z,61.60
2022-09-16T14:06:20.851Z,61.70
2022-09-16T14:08:59.072Z,61.90
2022-09-16T14:11:35.488Z,61.80
2022-09-16T14:14:06.886Z,62.00
2022-09-16T14:16:40.264Z,62.40
2022-09-16T14:19:27.605Z,62.50
2022-09-16T14:22:03.535Z,63.00
2022-09-16T14:24:38.308Z,63.20
2022-09-16T14:27:18.775Z,63.50
2022-09-16T14:29:58.970Z,64.00
2022-09-16T14:32:29.814Z,64.70
2022-09-16T14:35:01.894Z,64.90
2022-09-16T14:37:32.447Z,65.00
2022-09-16T14:40:11.201Z,65.00
2022-09-16T14:42:41.012Z,64.90
2022-09-16T14:45:16.345Z,64.90
2022-09-16T14:47:51.596Z,65.00
2022-09-16T14:50:23.168Z,64.80
2022-09-16T14:52:55.791Z,64.70
2022-09-16T14:55:29.983Z,64.60
2022-09-16T14:57:58.749Z,64.50
2022-09-16T15:00:37.887Z,64.20
2022-09-16T15:03:12.078Z,64.30
2022-09-16T15:05:42.357Z,64.30
2022-09-16T15:08:16.476Z,64.40
2022-09-16T15:10:52.386Z,64.30
2022-09-16T15:13:23.271Z,64.30
2022-09-16T15:15:54.340Z,64.40
2022-09-16T15:18:26.936Z,64.30
2022-09-16T15:21:03.644Z,64.10
2022-09-16T15:23:33.388Z,64.10
2022-09-16T15:26:12.077Z,64.00
2022-09-16T15:28:52.629Z,64.00
2022-09-16T15:31:28.926Z,64.10
2022-09-16T15:33:58.511Z,64.20
2022-09-16T15:36:39.126Z,64.20
2022-09-16T15:39:22.458Z,64.20
2022-09-16T15:42:05.950Z,64.20
2022-09-16T15:44:37.334Z,64.20
2022-09-16T15:47:06.127Z,64.30
2022-09-16T15:49:40.086Z,64.30
2022-09-16T15:52:11.561Z,64.30
2022-09-16T15:54:48.065Z,64.40
2022-09-16T15:57:28.533Z,64.50
2022-09-16T16:00:11.936Z,64.60
2022-09-16T16:02:46.180Z,64.70
2022-09-16T16:05:16.801Z,64.70
2022-09-16T16:07:47.564Z,64.80
2022-09-16T16:10:18.838Z,64.90
2022-09-16T16:12:48.904Z,65.00
2022-09-16T16:15:18.867Z,65.10
2022-09-16T16:17:48.117Z,65.20
2022-09-16T16:20:17.282Z,65.50
2022-09-16T16:22:46.130Z,65.50
2022-09-16T16:25:15.556Z,65.70
2022-09-16T16:27:43.668Z,65.90
2022-09-16T16:30:13.776Z,65.90
2022-09-16T16:32:41.989Z,66.00
2022-09-16T16:35:10.484Z,66.10
2022-09-16T16:37:47.489Z,66.10
2022-09-16T16:40:16.565Z,66.30
2022-09-16T16:42:44.634Z,66.60
2022-09-16T16:45:14.423Z,66.80
2022-09-16T16:47:42.483Z,66.80
2022-09-16T16:50:11.585Z,67.00
2022-09-16T16:52:39.675Z,67.20
2022-09-16T16:55:08.620Z,67.30
2022-09-16T16:57:36.554Z,67.30
2022-09-16T17:00:05.171Z,67.50
2022-09-16T17:02:34.923Z,67.70
2022-09-16T17:05:02.898Z,68.00
2022-09-16T17:07:30.875Z,68.10
2022-09-16T17:09:58.844Z,68.20
2022-09-16T17:12:27.691Z,68.30
2022-09-16T17:14:55.847Z,68.50
2022-09-16T17:17:26.516Z,68.70
2022-09-16T17:19:58.197Z,69.10
2022-09-16T17:22:26.143Z,69.30
2022-09-16T17:24:54.099Z,69.50
2022-09-16T17:27:24.601Z,69.60
2022-09-16T17:30:01.109Z,69.80
2022-09-16T17:32:29.036Z,70.00
2022-09-16T17:34:59.294Z,70.10
2022-09-16T17:37:27.568Z,70.20
2022-09-16T17:39:55.563Z,70.20
2022-09-16T17:42:23.478Z,70.40
2022-09-16T17:44:51.305Z,70.60
2022-09-16T17:47:19.218Z,70.60
2022-09-16T17:49:47.222Z,70.70
2022-09-16T17:52:16.527Z,70.80
2022-09-16T17:54:44.428Z,70.90
2022-09-16T17:57:12.273Z,71.00
2022-09-16T17:59:40.317Z,71.00
2022-09-16T18:02:10.360Z,71.10
2022-09-16T18:04:38.469Z,71.20
2022-09-16T18:07:06.401Z,71.30
2022-09-16T18:09:35.751Z,71.40
2022-09-16T18:12:03.914Z,71.40
2022-09-16T18:14:31.786Z,71.50
2022-09-16T18:16:59.867Z,71.60
2022-09-16T18:19:28.001Z,71.60
2022-09-16T18:21:56.021Z,71.70
2022-09-16T18:24:23.988Z,71.80
2022-09-16T18:26:53.332Z,71.90
2022-09-16T18:29:21.281Z,72.00
2022-09-16T18:31:52.637Z,72.00
2022-09-16T18:34:20.523Z,72.10
2022-09-16T18:36:48.612Z,72.20
2022-09-16T18:39:18.739Z,72.30
2022-09-16T18:41:47.226Z,72.40
2022-09-16T18:44:19.574Z,72.40
2022-09-16T18:46:47.766Z,72.50
2022-09-16T18:49:17.475Z,72.50
2022-09-16T18:51:50.974Z,72.40
2022-09-16T18:54:24.467Z,72.40
2022-09-16T18:56:52.618Z,72.40
2022-09-16T18:59:24.241Z,72.50
2022-09-16T19:01:54.161Z,72.50
2022-09-16T19:04:25.324Z,72.40
2022-09-16T19:06:54.975Z,72.30
2022-09-16T19:09:24.507Z,72.20
2022-09-16T19:11:54.566Z,72.30
2022-09-16T19:14:27.359Z,72.40
2022-09-16T19:16:55.836Z,72.40
2022-09-16T19:19:23.864Z,72.50
2022-09-16T19:21:52.014Z,72.50
2022-09-16T19:24:22.918Z,72.50
2022-09-16T19:26:52.574Z,72.50
2022-09-16T19:29:21.433Z,72.60
2022-09-16T19:31:52.969Z,72.50
2022-09-16T19:34:22.755Z,72.60
2022-09-16T19:36:51.570Z,72.60
2022-09-16T19:39:21.065Z,72.50
2022-09-16T19:41:50.376Z,72.50
2022-09-16T19:44:19.052Z,72.50
2022-09-16T19:46:49.273Z,72.60
2022-09-16T19:49:20.898Z,72.60
2022-09-16T19:51:50.102Z,72.50
2022-09-16T19:54:18.921Z,72.50
2022-09-16T19:56:50.344Z,72.40
2022-09-16T19:59:19.715Z,72.50
2022-09-16T20:01:48.530Z,72.50
2022-09-16T20:04:19.695Z,72.50
2022-09-16T20:06:48.348Z,72.40
2022-09-16T20:09:16.873Z,72.50
2022-09-16T20:11:46.449Z,72.50
2022-09-16T20:14:16.410Z,72.50
2022-09-16T20:16:44.445Z,72.50
2022-09-16T20:19:14.054Z,72.40
2022-09-16T20:21:43.969Z,72.40
2022-09-16T20:24:15.690Z,72.40
2022-09-16T20:26:43.621Z,72.30
2022-09-16T20:29:11.542Z,72.30
2022-09-16T20:31:39.574Z,72.40
2022-09-16T20:34:07.820Z,72.40
2022-09-16T20:36:38.643Z,72.50
2022-09-16T20:39:09.190Z,72.50
2022-09-16T20:41:38.749Z,72.50
2022-09-16T20:44:07.660Z,72.50
2022-09-16T20:46:38.692Z,72.50
2022-09-16T20:49:10.489Z,72.50
2022-09-16T20:51:38.803Z,72.40
2022-09-16T20:54:09.970Z,72.40
2022-09-16T20:56:39.913Z,72.50
2022-09-16T20:59:08.741Z,72.50
2022-09-16T21:01:38.150Z,72.50
2022-09-16T21:04:08.134Z,72.50
2022-09-16T21:06:36.897Z,72.50
2022-09-16T21:09:07.201Z,72.40
2022-09-16T21:11:37.344Z,72.30
2022-09-16T21:14:07.523Z,72.30
2022-09-16T21:16:37.333Z,72.40
2022-09-16T21:19:09.364Z,72.40
2022-09-16T21:21:39.608Z,72.40
2022-09-16T21:24:08.941Z,72.40
2022-09-16T21:26:39.259Z,72.50
2022-09-16T21:29:11.078Z,72.50
2022-09-16T21:31:40.596Z,72.50
2022-09-16T21:34:12.416Z,72.50
2022-09-16T21:36:40.515Z,72.40
2022-09-16T21:39:08.796Z,72.40
2022-09-16T21:41:38.144Z,72.30
2022-09-16T21:44:06.175Z,72.30
2022-09-16T21:46:39.460Z,72.30
2022-09-16T21:49:07.969Z,72.30
2022-09-16T21:51:38.617Z,72.40
2022-09-16T21:54:08.686Z,72.40
2022-09-16T21:56:40.248Z,72.50
2022-09-16T21:59:08.610Z,72.50
2022-09-16T22:01:37.620Z,72.40
2022-09-16T22:04:07.274Z,72.30
2022-09-16T22:06:36.101Z,72.30
2022-09-16T22:09:07.690Z,72.40
2022-09-16T22:11:36.987Z,72.50
2022-09-16T22:14:06.361Z,72.50
2022-09-16T22:16:37.380Z,72.50
2022-09-16T22:19:07.785Z,72.60
2022-09-16T22:21:37.379Z,72.60
2022-09-16T22:24:06.160Z,72.70
2022-09-16T22:26:34.360Z,72.70
2022-09-16T22:29:02.434Z,72.90
2022-09-16T22:31:33.723Z,72.70
2022-09-16T22:34:02.959Z,72.70
2022-09-16T22:36:33.655Z,72.60
2022-09-16T22:39:04.907Z,72.60
2022-09-16T22:41:33.578Z,72.90
2022-09-16T22:44:01.613Z,72.90
2022-09-16T22:46:33.116Z,72.90
2022-09-16T22:49:01.713Z,73.00
2022-09-16T22:51:29.956Z,73.00
2022-09-16T22:53:57.926Z,72.90
2022-09-16T22:56:29.324Z,72.90
2022-09-16T22:58:59.055Z,72.90
2022-09-16T23:01:28.670Z,72.90
2022-09-16T23:03:59.733Z,72.90
2022-09-16T23:06:30.043Z,72.90
2022-09-16T23:08:58.960Z,72.70
2022-09-16T23:11:29.718Z,72.70
2022-09-16T23:13:58.220Z,72.70
2022-09-16T23:16:28.411Z,72.90
2022-09-16T23:18:58.966Z,72.70
2022-09-16T23:21:27.406Z,72.90
2022-09-16T23:23:57.096Z,72.90
2022-09-16T23:26:27.478Z,72.90
2022-09-16T23:28:57.675Z,72.90
2022-09-16T23:31:28.002Z,73.00
2022-09-16T23:33:58.114Z,73.00
2022-09-16T23:36:27.359Z,73.00
2022-09-16T23:38:56.209Z,73.10
2022-09-16T23:41:26.645Z,73.10
2022-09-16T23:43:55.633Z,73.10
2022-09-16T23:46:25.294Z,73.20
2022-09-16T23:48:53.801Z,73.10
2022-09-16T23:51:28.277Z,73.00
2022-09-16T23:53:57.739Z,73.00
2022-09-16T23:56:25.953Z,73.00
2022-09-16T23:58:54.519Z,73.00
